Flight Track Log - Related Links

Times and Time Zones

All times are in EDT time to prevent confusion due to time zone crossing. See the SWA2166 flight status page for this flight to view local times or setup timezone preferences in your user account.

Time Position Orientation Groundspeed Altitude Reporting Facility
EDT Latitude Longitude Course Direction KTS MPH feet Rate Location/Type
Mon 05:45:06 PM 47.4160 -122.3080 180° South 172 198 1,900  Level FlightAware ADS-B
Mon 05:45:18 PM 47.4030 -122.3080 180° South 197 227 2,200 1,784 Climbing FlightAware ADS-B
Mon 05:45:43 PM 47.3810 -122.3090 182° South 218 251 3,000 2,143 Climbing FlightAware ADS-B
Mon 05:46:00 PM 47.3650 -122.3100 182° South 219 252 3,700 2,870 Climbing FlightAware ADS-B
Mon 05:46:29 PM 47.3360 -122.3080 177° South 219 252 5,200 3,125 Climbing FlightAware ADS-B
Mon 05:46:48 PM 47.3200 -122.2850 136° Southeast 232 267 6,200 2,880 Climbing FlightAware ADS-B
Mon 05:46:54 PM 47.3180 -122.2780 113° Southeast 238 274 6,400 2,049 Climbing FlightAware ADS-B
Mon 05:47:29 PM 47.3280 -122.2140 77° East 285 328 7,600 2,760 Climbing FlightAware ADS-B
Mon 05:47:44 PM 47.3340 -122.1830 74° East 285 328 8,700 3,771 Climbing FlightAware ADS-B
Mon 05:48:04 PM 47.3420 -122.1470 72° East 286 329 9,800 2,464 Climbing FlightAware ADS-B
Mon 05:48:40 PM 47.3560 -122.0760 74° East 323 372 11,000 2,500 Climbing FlightAware ADS-B
Mon 05:49:16 PM 47.3730 -121.9980 72° East 337 388 12,800 2,333 Climbing FlightAware ADS-B
Mon 05:49:52 PM 47.3890 -121.9180 74° East 370 426 13,800 2,229 Climbing FlightAware ADS-B
Mon 05:50:26 PM 47.4070 -121.8320 73° East 379 436 15,400 2,657 Climbing FlightAware ADS-B
Mon 05:51:02 PM 47.4250 -121.7400 74° East 388 447 16,900 2,419 Climbing FlightAware ADS-B
Mon 05:51:28 PM 47.4290 -121.6750 85° East 390 449 17,900 2,400 Climbing FlightAware ADS-B
Mon 05:52:12 PM 47.4280 -121.5550 91° East 400 460 19,700 2,475 Climbing FlightAware ADS-B
Mon 05:52:48 PM 47.4260 -121.4540 92° East 406 467 21,200 2,294 Climbing FlightAware ADS-B
Mon 05:53:20 PM 47.4250 -121.3670 91° East 415 478 22,300 1,853 Climbing FlightAware ADS-B
Mon 05:53:56 PM 47.4230 -121.2640 92° East 428 493 23,300 1,714 Climbing FlightAware ADS-B
Mon 05:54:30 PM 47.4210 -121.1610 92° East 439 505 24,300 1,750 Climbing FlightAware ADS-B
Mon 05:55:08 PM 47.4190 -121.0460 91° East 447 514 25,400 1,714 Climbing FlightAware ADS-B
Mon 05:55:40 PM 47.4170 -120.9500 92° East 451 519 26,300 1,701 Climbing FlightAware ADS-B
Mon 05:56:15 PM 47.4150 -120.8430 92° East 453 521 27,300 1,500 Climbing FlightAware ADS-B
Mon 05:56:52 PM 47.3960 -120.7350 105° East 436 502 28,100 1,151 Climbing FlightAware ADS-B
Mon 05:57:28 PM 47.3650 -120.6350 115° Southeast 447 514 28,700 1,235 Climbing FlightAware ADS-B
Mon 05:58:00 PM 47.3380 -120.5470 114° Southeast 450 518 29,500 1,543 Climbing FlightAware ADS-B
Mon 05:58:38 PM 47.3060 -120.4390 114° Southeast 447 514 30,500 1,714 Climbing FlightAware ADS-B
Mon 05:59:10 PM 47.2780 -120.3520 115° Southeast 441 507 31,500 1,765 Climbing FlightAware ADS-B
Mon 05:59:46 PM 47.2470 -120.2570 116° Southeast 437 503 32,500 1,500 Climbing FlightAware ADS-B
Mon 06:00:22 PM 47.2160 -120.1600 115° Southeast 434 499 33,300 1,417 Climbing FlightAware ADS-B
Mon 06:00:58 PM 47.1850 -120.0650 116° Southeast 428 493 34,200 1,500 Climbing FlightAware ADS-B
Mon 06:01:30 PM 47.1580 -119.9800 115° Southeast 424 488 35,000 1,324 Climbing FlightAware ADS-B
Mon 06:02:06 PM 47.1280 -119.8880 116° Southeast 424 488 35,700 943 Climbing FlightAware ADS-B
Mon 06:02:40 PM 47.0990 -119.7990 116° Southeast 427 491 36,100 771 Climbing FlightAware ADS-B
Mon 06:03:16 PM 47.0680 -119.7040 116° Southeast 429 494 36,600 706 Climbing FlightAware ADS-B
Mon 06:03:48 PM 47.0410 -119.6210 115° Southeast 433 498 36,900 353 Climbing FlightAware ADS-B
Mon 06:04:24 PM 47.0100 -119.5270 116° Southeast 436 502 37,000 83 Climbing FlightAware ADS-B
Mon 06:05:00 PM 46.9780 -119.4310 116° Southeast 436 502 37,000  Level FlightAware ADS-B
Mon 06:05:38 PM 46.9450 -119.3300 116° Southeast 437 503 37,000  Level FlightAware ADS-B
Mon 06:06:12 PM 46.9140 -119.2380 116° Southeast 437 503 37,000  Level FlightAware ADS-B
Mon 06:06:48 PM 46.8830 -119.1450 116° Southeast 438 504 37,000  Level FlightAware ADS-B
Mon 06:07:20 PM 46.8540 -119.0590 116° Southeast 438 504 37,000  Level FlightAware ADS-B
Mon 06:07:56 PM 46.8220 -118.9630 116° Southeast 439 505 37,000  Level FlightAware ADS-B
Mon 06:08:32 PM 46.7900 -118.8670 116° Southeast 440 506 37,000  Level FlightAware ADS-B
Mon 06:09:17 PM 46.7530 -118.7570 116° Southeast 440 506 37,000  Level FlightAware ADS-B
Mon 06:09:52 PM 46.7190 -118.6600 117° Southeast 440 506 37,000  Level FlightAware ADS-B
Mon 06:10:27 PM 46.6910 -118.5750 116° Southeast 439 505 37,000  Level FlightAware ADS-B
Mon 06:10:57 PM 46.6610 -118.4880 117° Southeast 439 505 37,000  Level FlightAware ADS-B
Mon 06:11:37 PM 46.6250 -118.3830 116° Southeast 440 506 37,000  Level FlightAware ADS-B
Mon 06:12:17 PM 46.5870 -118.2730 117° Southeast 440 506 37,000  Level FlightAware ADS-B
Mon 06:12:52 PM 46.5580 -118.1890 117° Southeast 440 506 37,000  Level FlightAware ADS-B
Mon 06:13:32 PM 46.5190 -118.0770 117° Southeast 442 509 37,000  Level FlightAware ADS-B
Mon 06:14:22 PM 46.4790 -117.9590 116° Southeast 442 509 37,000  Level FlightAware ADS-B
Mon 06:15:00 PM 46.4370 -117.8430 118° Southeast 444 511 37,000  Level FlightAware ADS-B
Mon 06:15:42 PM 46.4040 -117.7460 116° Southeast 444 511 37,000  Level FlightAware ADS-B
Mon 06:16:18 PM 46.3770 -117.6640 115° Southeast 444 511 37,000  Level FlightAware ADS-B
Mon 06:16:46 PM 46.3240 -117.5820 133° Southeast 432 497 37,000  Level FlightAware ADS-B
Mon 06:17:22 PM 46.2840 -117.4980 125° Southeast 433 498 37,000  Level FlightAware ADS-B
Mon 06:17:58 PM 46.2480 -117.4220 124° Southeast 433 498 37,000  Level FlightAware ADS-B
Mon 06:18:36 PM 46.1990 -117.3200 125° Southeast 431 496 37,000  Level FlightAware ADS-B
Mon 06:19:08 PM 46.1620 -117.2440 125° Southeast 430 495 37,000  Level FlightAware ADS-B
Mon 06:19:43 PM 46.1230 -117.1620 124° Southeast 431 496 37,000  Level FlightAware ADS-B
Mon 06:20:20 PM 46.0810 -117.0740 125° Southeast 434 499 37,000  Level FlightAware ADS-B
Mon 06:20:56 PM 46.0390 -116.9880 125° Southeast 435 501 37,000  Level FlightAware ADS-B
Mon 06:21:28 PM 46.0020 -116.9110 125° Southeast 436 502 37,000  Level FlightAware ADS-B
Mon 06:22:04 PM 45.9610 -116.8270 125° Southeast 436 502 37,000  Level FlightAware ADS-B
Mon 06:22:36 PM 45.9240 -116.7510 125° Southeast 435 501 37,000  Level FlightAware ADS-B
Mon 06:23:10 PM 45.8850 -116.6710 125° Southeast 435 501 37,000  Level FlightAware ADS-B
Mon 06:23:50 PM 45.8380 -116.5760 125° Southeast 434 499 37,000  Level FlightAware ADS-B
Mon 06:24:22 PM 45.8020 -116.5020 125° Southeast 433 498 37,000  Level FlightAware ADS-B
Mon 06:24:58 PM 45.7590 -116.4160 126° Southeast 433 498 37,000  Level FlightAware ADS-B
Mon 06:25:34 PM 45.7180 -116.3340 126° Southeast 434 499 37,000  Level FlightAware ADS-B
Mon 06:26:08 PM 45.6780 -116.2520 125° Southeast 433 498 37,000  Level FlightAware ADS-B
Mon 06:26:44 PM 45.6370 -116.1700 126° Southeast 433 498 37,000  Level FlightAware ADS-B
Mon 06:27:20 PM 45.5960 -116.0870 125° Southeast 431 496 37,000  Level FlightAware ADS-B
Mon 06:27:56 PM 45.5540 -116.0040 126° Southeast 432 497 37,000  Level FlightAware ADS-B
Mon 06:28:28 PM 45.5170 -115.9300 125° Southeast 432 497 37,000  Level FlightAware ADS-B
Mon 06:29:04 PM 45.4750 -115.8460 125° Southeast 433 498 37,000  Level FlightAware ADS-B
Mon 06:29:40 PM 45.4330 -115.7640 126° Southeast 434 499 37,000  Level FlightAware ADS-B
Mon 06:30:12 PM 45.3950 -115.6880 125° Southeast 433 498 37,000  Level FlightAware ADS-B
Mon 06:30:50 PM 45.3510 -115.6010 126° Southeast 434 499 37,000  Level FlightAware ADS-B
Mon 06:31:22 PM 45.3130 -115.5270 126° Southeast 435 501 37,000  Level FlightAware ADS-B
Mon 06:31:59 PM 45.2700 -115.4430 126° Southeast 435 501 37,000  Level FlightAware ADS-B
Mon 06:32:32 PM 45.2300 -115.3650 126° Southeast 436 502 37,000  Level FlightAware ADS-B
Mon 06:33:08 PM 45.1880 -115.2830 126° Southeast 436 502 37,000  Level FlightAware ADS-B
Mon 06:33:36 PM 45.1540 -115.2170 126° Southeast 439 505 37,000  Level FlightAware ADS-B
Mon 06:34:12 PM 45.1120 -115.1350 126° Southeast 438 504 37,000  Level FlightAware ADS-B
Mon 06:34:48 PM 45.0680 -115.0510 127° Southeast 437 503 37,000  Level FlightAware ADS-B
Mon 06:35:33 PM 45.0210 -114.9580 126° Southeast 436 502 37,000  Level FlightAware ADS-B
Mon 06:36:03 PM 44.9800 -114.8800 127° Southeast 435 501 37,000  Level FlightAware ADS-B
Mon 06:36:40 PM 44.9350 -114.7960 127° Southeast 434 499 37,000  Level FlightAware ADS-B
Mon 06:37:13 PM 44.8960 -114.7220 127° Southeast 434 499 37,000  Level FlightAware ADS-B
Mon 06:37:46 PM 44.8590 -114.6500 126° Southeast 435 501 37,000  Level FlightAware ADS-B
Mon 06:38:24 PM 44.8210 -114.5760 126° Southeast 435 501 37,000  Level FlightAware ADS-B
Mon 06:38:58 PM 44.7700 -114.4820 127° Southeast 437 503 37,000  Level FlightAware ADS-B
Mon 06:39:41 PM 44.7260 -114.3960 126° Southeast 437 503 37,000  Level FlightAware ADS-B
Mon 06:40:17 PM 44.6900 -114.3260 126° Southeast 437 503 37,000  Level FlightAware ADS-B
Mon 06:40:53 PM 44.6530 -114.2550 126° Southeast 437 503 37,000  Level FlightAware ADS-B
Mon 06:41:27 PM 44.5900 -114.1420 128° Southeast 440 506 37,000  Level FlightAware ADS-B
Mon 06:42:01 PM 44.5490 -114.0660 127° Southeast 440 506 37,000  Level FlightAware ADS-B
Mon 06:42:37 PM 44.5040 -113.9840 128° Southeast 441 507 37,000  Level FlightAware ADS-B
Mon 06:43:13 PM 44.4600 -113.9010 127° Southeast 440 506 37,000  Level FlightAware ADS-B
Mon 06:43:55 PM 44.4160 -113.8200 127° Southeast 439 505 37,000  Level FlightAware ADS-B
Mon 06:44:31 PM 44.3790 -113.7510 127° Southeast 439 505 37,000  Level FlightAware ADS-B
Mon 06:45:07 PM 44.3410 -113.6810 127° Southeast 439 505 37,000  Level FlightAware ADS-B
Mon 06:45:44 PM 44.3030 -113.6100 127° Southeast 439 505 37,000  Level FlightAware ADS-B
Mon 06:46:18 PM 44.2680 -113.5440 127° Southeast 439 505 37,000  Level FlightAware ADS-B
Mon 06:46:54 PM 44.2300 -113.4750 128° Southeast 439 505 37,000  Level FlightAware ADS-B
Mon 06:47:32 PM 44.1910 -113.4020 127° Southeast 439 505 37,000  Level FlightAware ADS-B
Mon 06:48:08 PM 44.1530 -113.3330 127° Southeast 439 505 37,000  Level FlightAware ADS-B
Mon 06:48:44 PM 44.1160 -113.2640 127° Southeast 439 505 37,000  Level FlightAware ADS-B
Mon 06:49:20 PM 44.0790 -113.1950 127° Southeast 439 505 37,000  Level FlightAware ADS-B
Mon 06:49:56 PM 44.0410 -113.1250 127° Southeast 439 505 37,000  Level FlightAware ADS-B
Mon 06:50:33 PM 44.0030 -113.0550 127° Southeast 439 505 37,000  Level FlightAware ADS-B
Mon 06:51:09 PM 43.9650 -112.9860 127° Southeast 439 505 37,000  Level FlightAware ADS-B
Mon 06:51:45 PM 43.9280 -112.9170 127° Southeast 439 505 37,000  Level FlightAware ADS-B
Mon 06:52:21 PM 43.8910 -112.8480 127° Southeast 439 505 37,000  Level FlightAware ADS-B
Mon 06:52:57 PM 43.8530 -112.7790 127° Southeast 439 505 37,000  Level FlightAware ADS-B
Mon 06:54:20 PM 43.6406 -112.4200 127° Southeast 437 503 37,000  Level Salt Lake Center
Mon 06:55:21 PM 43.5681 -112.2936 128° Southeast 439 505 37,000  Level Salt Lake Center
Mon 06:56:23 PM 43.4956 -112.1656 128° Southeast 442 509 37,000  Level Salt Lake Center
Mon 06:57:24 PM 43.4103 -112.0181 128° Southeast 442 509 37,000  Level Salt Lake Center
Mon 06:58:26 PM 43.3381 -111.8917 128° Southeast 441 507 37,000  Level Salt Lake Center
Mon 06:59:28 PM 43.2519 -111.7450 129° Southeast 442 509 37,000  Level Salt Lake Center
Mon 07:00:29 PM 43.1783 -111.6206 129° Southeast 441 507 37,000  Level Salt Lake Center
Mon 07:01:31 PM 43.0925 -111.4739 129° Southeast 443 510 37,000  Level Salt Lake Center
Mon 07:02:33 PM 43.0189 -111.3486 129° Southeast 442 509 37,000  Level Salt Lake Center
Mon 07:08:30 PM 42.5820 -110.5350 129° Southeast 455 524 37,000  Level FlightAware ADS-B
Mon 07:09:11 PM 42.5530 -110.4430 113° Southeast 455 524 37,000  Level FlightAware ADS-B
Mon 07:09:48 PM 42.5270 -110.3610 113° Southeast 455 524 37,000  Level FlightAware ADS-B
Mon 07:10:24 PM 42.5020 -110.2800 113° Southeast 455 524 37,000  Level FlightAware ADS-B
Mon 07:11:01 PM 42.4760 -110.1980 113° Southeast 455 524 37,000  Level FlightAware ADS-B
Mon 07:11:55 PM 42.4390 -110.0770 112° Southeast 455 524 37,000  Level FlightAware ADS-B
Mon 07:12:29 PM 42.4150 -110.0010 113° Southeast 455 524 37,000  Level FlightAware ADS-B
Mon 07:13:05 PM 42.3900 -109.9210 113° Southeast 455 524 37,000  Level FlightAware ADS-B
Mon 07:13:41 PM 42.3640 -109.8410 114° Southeast 455 524 37,000  Level FlightAware ADS-B
Mon 07:14:18 PM 42.3390 -109.7580 112° Southeast 455 524 37,000  Level FlightAware ADS-B
Mon 07:14:54 PM 42.3130 -109.6780 114° Southeast 455 524 37,000  Level FlightAware ADS-B
Mon 07:15:30 PM 42.2880 -109.5980 113° Southeast 455 524 37,000  Level FlightAware ADS-B
Mon 07:16:06 PM 42.2630 -109.5180 113° Southeast 455 524 37,000  Level FlightAware ADS-B
Mon 07:16:42 PM 42.2380 -109.4380 113° Southeast 455 524 37,000  Level FlightAware ADS-B
Mon 07:17:18 PM 42.2130 -109.3580 113° Southeast 455 524 37,000  Level FlightAware ADS-B
Mon 07:17:54 PM 42.1870 -109.2780 114° Southeast 455 524 37,000  Level FlightAware ADS-B
Mon 07:18:49 PM 41.9300 -109.0572 114° Southeast 450 518 37,000  Level Denver Center
Mon 07:19:51 PM 41.8494 -108.9406 133° Southeast 444 511 37,000  Level Denver Center
Mon 07:20:53 PM 41.7536 -108.8003 132° Southeast 452 520 37,000  Level Denver Center
Mon 07:21:55 PM 41.6694 -108.6817 134° Southeast 455 524 37,000  Level Denver Center
Mon 07:22:57 PM 41.5725 -108.5419 133° Southeast 455 524 37,000  Level Denver Center
Mon 07:23:59 PM 41.4897 -108.4256 133° Southeast 451 519 37,000  Level Denver Center
Mon 07:25:13 PM 41.3800 -108.2697 133° Southeast 449 517 37,000  Level Denver Center
Mon 07:26:15 PM 41.3136 -108.1381 124° Southeast 448 516 37,000  Level Denver Center
Mon 07:27:17 PM 41.2481 -107.9714 118° Southeast 455 524 37,000  Level Denver Center
Mon 07:28:19 PM 41.1919 -107.8278 117° Southeast 457 526 37,000  Level Denver Center
Mon 07:29:21 PM 41.1244 -107.6603 118° Southeast 461 531 37,000  Level Denver Center
Mon 07:30:23 PM 41.0678 -107.5158 117° Southeast 461 531 37,000  Level Denver Center
Mon 07:31:26 PM 41.0014 -107.3486 118° Southeast 461 531 37,000 -699 Level Denver Center
Mon 07:36:49 PM 40.6780 -106.5540 118° Southeast 468 539 32,500 -963 Descending FlightAware ADS-B
Mon 07:37:21 PM 40.6470 -106.4780 118° Southeast 468 539 31,300 -1,043 Descending FlightAware ADS-B
Mon 07:37:58 PM 40.6150 -106.3990 118° Southeast 468 539 31,300 -1,360 Level FlightAware ADS-B
Mon 07:38:36 PM 40.5740 -106.3010 119° Southeast 456 525 29,600 -3,304 Descending FlightAware ADS-B
Mon 07:39:07 PM 40.5390 -106.2170 119° Southeast 444 511 27,500 -3,045 Descending FlightAware ADS-B
Mon 07:39:43 PM 40.5030 -106.1320 119° Southeast 435 501 26,200 -2,083 Descending FlightAware ADS-B
Mon 07:40:19 PM 40.4690 -106.0490 118° Southeast 428 493 25,000 -1,400 Descending FlightAware ADS-B
Mon 07:41:13 PM 40.4310 -105.9310 113° Southeast 424 488 24,100 -2,108 Descending FlightAware ADS-B
Mon 07:41:33 PM 40.4250 -105.8700 97° East 411 473 22,400 -3,000 Descending FlightAware ADS-B
Mon 07:42:09 PM 40.4120 -105.7830 101° East 401 461 21,300 -1,690 Descending FlightAware ADS-B
Mon 07:42:44 PM 40.3990 -105.7020 102° East 395 455 20,400 -1,583 Descending FlightAware ADS-B
Mon 07:43:21 PM 40.3860 -105.6160 101° East 380 437 19,400 -1,562 Descending FlightAware ADS-B
Mon 07:43:57 PM 40.3730 -105.5380 102° East 383 441 18,500 -1,853 Descending FlightAware ADS-B
Mon 07:44:29 PM 40.3610 -105.4630 102° East 376 433 17,300 -2,182 Descending FlightAware ADS-B
Mon 07:45:03 PM 40.3490 -105.3900 102° East 369 425 16,100 -2,143 Descending FlightAware ADS-B
Mon 07:45:39 PM 40.3390 -105.3100 99° East 362 417 14,800 -1,917 Descending FlightAware ADS-B
Mon 07:46:15 PM 40.3290 -105.2340 100° East 350 403 13,800 -1,333 Descending FlightAware ADS-B
Mon 07:46:51 PM 40.3200 -105.1610 99° East 333 383 13,200 -750 Descending FlightAware ADS-B
Mon 07:47:27 PM 40.3090 -105.0910 102° East 326 375 12,900 -265 Descending FlightAware ADS-B
Mon 07:47:59 PM 40.3000 -105.0260 100° East 335 386 12,900 -91 Level FlightAware ADS-B
Mon 07:48:33 PM 40.2910 -104.9610 100° East 328 377 12,800 -115 Descending FlightAware ADS-B
Mon 07:48:51 PM 40.2810 -104.9280 112° Southeast 307 353 12,800 -240 Level FlightAware ADS-B
Mon 07:49:23 PM 40.2540 -104.8840 129° Southeast 276 318 12,600 -609 Descending FlightAware ADS-B
Mon 07:50:00 PM 40.2260 -104.8400 130° Southeast 255 293 12,100 -943 Descending FlightAware ADS-B
Mon 07:50:33 PM 40.2010 -104.8020 131° Southeast 246 283 11,500 -1,358 Descending FlightAware ADS-B
Mon 07:50:53 PM 40.1840 -104.7810 137° Southeast 247 284 10,900 -1,552 Descending FlightAware ADS-B
Mon 07:51:31 PM 40.1430 -104.7610 160° South 248 285 10,000 -1,345 Descending FlightAware ADS-B
Mon 07:51:51 PM 40.1220 -104.7510 160° South 244 281 9,600 -1,200 Descending FlightAware ADS-B
Mon 07:52:11 PM 40.1000 -104.7410 161° South 241 277 9,200 -1,350 Descending FlightAware ADS-B
Mon 07:52:31 PM 40.0800 -104.7320 161° South 242 278 8,700 -1,429 Descending FlightAware ADS-B
Mon 07:52:53 PM 40.0560 -104.7210 161° South 239 275 8,200 -1,421 Descending FlightAware ADS-B
Mon 07:53:09 PM 40.0400 -104.7140 161° South 234 269 7,800 -1,500 Descending FlightAware ADS-B
Mon 07:53:21 PM 40.0270 -104.7080 161° South 230 265 7,500 -1,333 Descending FlightAware ADS-B
Mon 07:53:45 PM 40.0040 -104.6980 162° South 216 249 7,000 -1,000 Descending FlightAware ADS-B
Mon 07:53:57 PM 39.9920 -104.6940 166° South 205 236 6,900 -882 Descending FlightAware ADS-B
Mon 07:54:19 PM 39.9720 -104.6960 184° South 193 222 6,500 -1,000 Descending FlightAware ADS-B
Mon 07:54:39 PM 39.9550 -104.6950 177° South 181 208 6,200 -857 Descending FlightAware ADS-B
Mon 07:55:15 PM 39.9250 -104.6960 181° South 178 205 5,700 -857 Descending FlightAware ADS-B
Mon 07:55:35 PM 39.9090 -104.6960 180° South 178 205 5,400 -714 Descending FlightAware ADS-B
Mon 07:55:57 PM 39.8920 -104.6960 180° South 174 200 5,200 -545 Descending FlightAware ADS-B
Mon 07:56:19 PM 39.8770 -104.6960 180° South 105 121 -14,182 Descending FlightAware ADS-B

Login

Don't have an account? Register now (free) for customized features, flight alerts, and more!